sensor_id;sensor_type;location;lat;lon;timestamp;temperature;humidity
2010;DHT22;1008;47.404;8.502;2023-03-01T00:02:12;1.70;99.90
2010;DHT22;1008;47.404;8.502;2023-03-01T00:04:39;1.60;99.90
2010;DHT22;1008;47.404;8.502;2023-03-01T00:07:06;1.60;99.90
2010;DHT22;1008;47.404;8.502;2023-03-01T00:09:32;1.50;99.90
2010;DHT22;1008;47.404;8.502;2023-03-01T00:11:59;1.60;99.90
2010;DHT22;1008;47.404;8.502;2023-03-01T00:14:26;1.70;99.90
2010;DHT22;1008;47.404;8.502;2023-03-01T00:16:54;1.80;99.90
2010;DHT22;1008;47.404;8.502;2023-03-01T00:19:21;1.70;99.90
2010;DHT22;1008;47.404;8.502;2023-03-01T00:21:48;1.80;99.90
2010;DHT22;1008;47.404;8.502;2023-03-01T00:24:15;1.80;99.90
2010;DHT22;1008;47.404;8.502;2023-03-01T00:26:42;1.80;99.90
2010;DHT22;1008;47.404;8.502;2023-03-01T00:29:09;1.70;99.90
2010;DHT22;1008;47.404;8.502;2023-03-01T00:31:36;1.60;99.90
2010;DHT22;1008;47.404;8.502;2023-03-01T00:34:04;1.40;99.90
2010;DHT22;1008;47.404;8.502;2023-03-01T00:36:34;1.40;99.90
2010;DHT22;1008;47.404;8.502;2023-03-01T00:39:01;1.50;99.90
2010;DHT22;1008;47.404;8.502;2023-03-01T00:41:29;1.70;99.90
2010;DHT22;1008;47.404;8.502;2023-03-01T00:43:56;1.60;99.90
2010;DHT22;1008;47.404;8.502;2023-03-01T00:46:24;1.50;99.90
2010;DHT22;1008;47.404;8.502;2023-03-01T00:48:52;1.50;99.90
2010;DHT22;1008;47.404;8.502;2023-03-01T00:51:22;1.40;99.90
2010;DHT22;1008;47.404;8.502;2023-03-01T00:53:51;1.40;99.90
2010;DHT22;1008;47.404;8.502;2023-03-01T00:56:18;1.50;99.90
2010;DHT22;1008;47.404;8.502;2023-03-01T00:58:45;1.50;99.90
2010;DHT22;1008;47.404;8.502;2023-03-01T01:01:15;1.70;99.90
2010;DHT22;1008;47.404;8.502;2023-03-01T01:03:44;1.80;99.90
2010;DHT22;1008;47.404;8.502;2023-03-01T01:06:16;1.80;99.90
2010;DHT22;1008;47.404;8.502;2023-03-01T01:08:45;1.70;99.90
2010;DHT22;1008;47.404;8.502;2023-03-01T01:11:12;1.70;99.90
2010;DHT22;1008;47.404;8.502;2023-03-01T01:13:39;1.60;99.90
2010;DHT22;1008;47.404;8.502;2023-03-01T01:16:07;1.70;99.90
2010;DHT22;1008;47.404;8.502;2023-03-01T01:18:34;1.60;99.90
2010;DHT22;1008;47.404;8.502;2023-03-01T01:21:05;1.60;99.90
2010;DHT22;1008;47.404;8.502;2023-03-01T01:23:32;1.70;99.90
2010;DHT22;1008;47.404;8.502;2023-03-01T01:26:05;1.70;99.90
2010;DHT22;1008;47.404;8.502;2023-03-01T01:28:33;1.80;99.90
2010;DHT22;1008;47.404;8.502;2023-03-01T01:31:00;1.70;99.90
2010;DHT22;1008;47.404;8.502;2023-03-01T01:33:26;1.80;99.90
2010;DHT22;1008;47.404;8.502;2023-03-01T01:35:53;1.80;99.90
2010;DHT22;1008;47.404;8.502;2023-03-01T01:38:20;1.80;99.90
2010;DHT22;1008;47.404;8.502;2023-03-01T01:40:49;1.90;99.90
2010;DHT22;1008;47.404;8.502;2023-03-01T01:43:23;1.80;99.90
2010;DHT22;1008;47.404;8.502;2023-03-01T01:45:50;1.70;99.90
2010;DHT22;1008;47.404;8.502;2023-03-01T01:48:20;1.70;99.90
2010;DHT22;1008;47.404;8.502;2023-03-01T01:50:54;1.70;99.90
2010;DHT22;1008;47.404;8.502;2023-03-01T01:53:22;1.70;99.90
2010;DHT22;1008;47.404;8.502;2023-03-01T01:55:52;1.80;99.90
2010;DHT22;1008;47.404;8.502;2023-03-01T01:58:21;1.90;99.90
2010;DHT22;1008;47.404;8.502;2023-03-01T02:00:48;1.90;99.90
2010;DHT22;1008;47.404;8.502;2023-03-01T02:03:20;1.80;99.90
2010;DHT22;1008;47.404;8.502;2023-03-01T02:05:52;1.90;99.90
2010;DHT22;1008;47.404;8.502;2023-03-01T02:08:21;1.70;99.90
2010;DHT22;1008;47.404;8.502;2023-03-01T02:10:50;1.30;99.90
2010;DHT22;1008;47.404;8.502;2023-03-01T02:13:18;1.60;99.90
2010;DHT22;1008;47.404;8.502;2023-03-01T02:15:46;1.70;99.90
2010;DHT22;1008;47.404;8.502;2023-03-01T02:18:16;1.80;99.90
2010;DHT22;1008;47.404;8.502;2023-03-01T02:20:49;2.00;99.90
2010;DHT22;1008;47.404;8.502;2023-03-01T02:23:17;1.90;99.90
2010;DHT22;1008;47.404;8.502;2023-03-01T02:25:50;1.90;99.90
2010;DHT22;1008;47.404;8.502;2023-03-01T02:28:24;1.90;99.90
2010;DHT22;1008;47.404;8.502;2023-03-01T02:30:51;1.90;99.90
2010;DHT22;1008;47.404;8.502;2023-03-01T02:33:39;1.90;99.90
2010;DHT22;1008;47.404;8.502;2023-03-01T02:36:09;1.80;99.90
2010;DHT22;1008;47.404;8.502;2023-03-01T02:38:38;1.90;99.90
2010;DHT22;1008;47.404;8.502;2023-03-01T02:41:07;2.10;99.90
2010;DHT22;1008;47.404;8.502;2023-03-01T02:43:36;2.10;99.90
2010;DHT22;1008;47.404;8.502;2023-03-01T02:46:06;2.10;99.90
2010;DHT22;1008;47.404;8.502;2023-03-01T02:48:41;2.10;99.90
2010;DHT22;1008;47.404;8.502;2023-03-01T02:51:16;2.00;99.90
2010;DHT22;1008;47.404;8.502;2023-03-01T02:53:53;2.00;99.90
2010;DHT22;1008;47.404;8.502;2023-03-01T02:56:22;2.00;99.90
2010;DHT22;1008;47.404;8.502;2023-03-01T02:58:50;1.90;99.90
2010;DHT22;1008;47.404;8.502;2023-03-01T03:01:18;1.80;99.90
2010;DHT22;1008;47.404;8.502;2023-03-01T03:03:45;1.50;99.90
2010;DHT22;1008;47.404;8.502;2023-03-01T03:06:12;1.80;99.90
2010;DHT22;1008;47.404;8.502;2023-03-01T03:08:39;1.80;99.90
2010;DHT22;1008;47.404;8.502;2023-03-01T03:11:06;1.90;99.90
2010;DHT22;1008;47.404;8.502;2023-03-01T03:13:33;2.10;99.90
2010;DHT22;1008;47.404;8.502;2023-03-01T03:16:02;2.00;99.90
2010;DHT22;1008;47.404;8.502;2023-03-01T03:18:29;2.00;99.90
2010;DHT22;1008;47.404;8.502;2023-03-01T03:20:56;2.00;99.90
2010;DHT22;1008;47.404;8.502;2023-03-01T03:23:23;2.10;99.90
2010;DHT22;1008;47.404;8.502;2023-03-01T03:25:50;2.10;99.90
2010;DHT22;1008;47.404;8.502;2023-03-01T03:28:17;2.10;99.90
2010;DHT22;1008;47.404;8.502;2023-03-01T03:30:44;2.10;99.90
2010;DHT22;1008;47.404;8.502;2023-03-01T03:33:13;2.00;99.90
2010;DHT22;1008;47.404;8.502;2023-03-01T03:35:42;1.70;99.90
2010;DHT22;1008;47.404;8.502;2023-03-01T03:38:11;1.80;99.90
2010;DHT22;1008;47.404;8.502;2023-03-01T03:40:43;1.90;99.90
2010;DHT22;1008;47.404;8.502;2023-03-01T03:43:12;2.10;99.90
2010;DHT22;1008;47.404;8.502;2023-03-01T03:45:39;2.10;99.90
2010;DHT22;1008;47.404;8.502;2023-03-01T03:48:07;2.10;99.90
2010;DHT22;1008;47.404;8.502;2023-03-01T03:50:36;2.20;99.90
2010;DHT22;1008;47.404;8.502;2023-03-01T03:53:05;2.00;99.90
2010;DHT22;1008;47.404;8.502;2023-03-01T03:55:32;2.40;99.90
2010;DHT22;1008;47.404;8.502;2023-03-01T03:58:00;2.20;99.90
2010;DHT22;1008;47.404;8.502;2023-03-01T04:00:32;2.10;99.90
2010;DHT22;1008;47.404;8.502;2023-03-01T04:02:59;2.10;99.90
2010;DHT22;1008;47.404;8.502;2023-03-01T04:05:27;1.90;99.90
2010;DHT22;1008;47.404;8.502;2023-03-01T04:07:55;2.10;99.90
2010;DHT22;1008;47.404;8.502;2023-03-01T04:10:28;2.10;99.90
2010;DHT22;1008;47.404;8.502;2023-03-01T04:12:55;2.00;99.90
2010;DHT22;1008;47.404;8.502;2023-03-01T04:15:23;2.20;99.90
2010;DHT22;1008;47.404;8.502;2023-03-01T04:17:51;2.20;99.90
2010;DHT22;1008;47.404;8.502;2023-03-01T04:20:20;2.30;99.90
2010;DHT22;1008;47.404;8.502;2023-03-01T04:22:51;2.30;99.90
2010;DHT22;1008;47.404;8.502;2023-03-01T04:25:19;2.30;99.90
2010;DHT22;1008;47.404;8.502;2023-03-01T04:27:46;2.10;99.90
2010;DHT22;1008;47.404;8.502;2023-03-01T04:30:13;2.20;99.90
2010;DHT22;1008;47.404;8.502;2023-03-01T04:32:40;2.10;99.90
2010;DHT22;1008;47.404;8.502;2023-03-01T04:35:08;2.20;99.90
2010;DHT22;1008;47.404;8.502;2023-03-01T04:37:35;2.20;99.90
2010;DHT22;1008;47.404;8.502;2023-03-01T04:40:02;2.10;99.90
2010;DHT22;1008;47.404;8.502;2023-03-01T04:42:39;2.20;99.90
2010;DHT22;1008;47.404;8.502;2023-03-01T04:45:06;2.40;99.90
2010;DHT22;1008;47.404;8.502;2023-03-01T04:47:38;2.10;99.90
2010;DHT22;1008;47.404;8.502;2023-03-01T04:50:06;2.20;99.90
2010;DHT22;1008;47.404;8.502;2023-03-01T04:52:33;2.10;99.90
2010;DHT22;1008;47.404;8.502;2023-03-01T04:55:00;2.10;99.90
2010;DHT22;1008;47.404;8.502;2023-03-01T04:57:27;2.10;99.90
2010;DHT22;1008;47.404;8.502;2023-03-01T04:59:55;2.40;99.90
2010;DHT22;1008;47.404;8.502;2023-03-01T05:02:22;2.10;99.90
2010;DHT22;1008;47.404;8.502;2023-03-01T05:04:49;2.00;99.90
2010;DHT22;1008;47.404;8.502;2023-03-01T05:07:16;2.10;99.90
2010;DHT22;1008;47.404;8.502;2023-03-01T05:09:45;2.20;99.90
2010;DHT22;1008;47.404;8.502;2023-03-01T05:12:14;2.20;99.90
2010;DHT22;1008;47.404;8.502;2023-03-01T05:14:41;2.30;99.90
2010;DHT22;1008;47.404;8.502;2023-03-01T05:17:09;2.10;99.90
2010;DHT22;1008;47.404;8.502;2023-03-01T05:19:36;2.20;99.90
2010;DHT22;1008;47.404;8.502;2023-03-01T05:22:03;2.50;99.90
2010;DHT22;1008;47.404;8.502;2023-03-01T05:24:31;2.20;99.90
2010;DHT22;1008;47.404;8.502;2023-03-01T05:26:59;2.20;99.90
2010;DHT22;1008;47.404;8.502;2023-03-01T05:29:27;2.20;99.90
2010;DHT22;1008;47.404;8.502;2023-03-01T05:31:55;2.10;99.90
2010;DHT22;1008;47.404;8.502;2023-03-01T05:34:25;2.20;99.90
2010;DHT22;1008;47.404;8.502;2023-03-01T05:36:53;2.10;99.90
2010;DHT22;1008;47.404;8.502;2023-03-01T05:39:20;2.20;99.90
2010;DHT22;1008;47.404;8.502;2023-03-01T05:41:48;2.30;99.90
2010;DHT22;1008;47.404;8.502;2023-03-01T05:44:15;2.20;99.90
2010;DHT22;1008;47.404;8.502;2023-03-01T05:46:42;2.30;99.90
2010;DHT22;1008;47.404;8.502;2023-03-01T05:49:10;2.20;99.90
2010;DHT22;1008;47.404;8.502;2023-03-01T05:51:40;2.40;99.90
2010;DHT22;1008;47.404;8.502;2023-03-01T05:54:07;2.30;99.90
2010;DHT22;1008;47.404;8.502;2023-03-01T05:56:34;2.30;99.90
2010;DHT22;1008;47.404;8.502;2023-03-01T05:59:02;2.20;99.90
2010;DHT22;1008;47.404;8.502;2023-03-01T06:01:30;2.20;99.90
2010;DHT22;1008;47.404;8.502;2023-03-01T06:03:57;2.30;99.90
2010;DHT22;1008;47.404;8.502;2023-03-01T06:06:24;2.30;99.90
2010;DHT22;1008;47.404;8.502;2023-03-01T06:08:54;2.10;99.90
2010;DHT22;1008;47.404;8.502;2023-03-01T06:11:21;2.20;99.90
2010;DHT22;1008;47.404;8.502;2023-03-01T06:13:48;2.30;99.90
2010;DHT22;1008;47.404;8.502;2023-03-01T06:16:15;2.10;99.90
2010;DHT22;1008;47.404;8.502;2023-03-01T06:18:41;2.20;99.90
2010;DHT22;1008;47.404;8.502;2023-03-01T06:21:08;2.30;99.90
2010;DHT22;1008;47.404;8.502;2023-03-01T06:23:35;2.30;99.90
2010;DHT22;1008;47.404;8.502;2023-03-01T06:26:07;2.30;99.90
2010;DHT22;1008;47.404;8.502;2023-03-01T06:28:34;2.30;99.90
2010;DHT22;1008;47.404;8.502;2023-03-01T06:31:01;2.30;99.90
2010;DHT22;1008;47.404;8.502;2023-03-01T06:33:27;2.30;99.90
2010;DHT22;1008;47.404;8.502;2023-03-01T06:35:54;2.80;99.90
2010;DHT22;1008;47.404;8.502;2023-03-01T06:38:21;2.80;99.90
2010;DHT22;1008;47.404;8.502;2023-03-01T06:40:51;2.60;99.90
2010;DHT22;1008;47.404;8.502;2023-03-01T06:43:20;2.60;99.90
2010;DHT22;1008;47.404;8.502;2023-03-01T06:45:47;2.50;99.90
2010;DHT22;1008;47.404;8.502;2023-03-01T06:48:14;2.40;99.90
2010;DHT22;1008;47.404;8.502;2023-03-01T06:50:41;2.30;99.90
2010;DHT22;1008;47.404;8.502;2023-03-01T06:53:07;2.30;99.90
2010;DHT22;1008;47.404;8.502;2023-03-01T06:55:34;2.40;99.90
2010;DHT22;1008;47.404;8.502;2023-03-01T06:58:02;2.30;99.90
2010;DHT22;1008;47.404;8.502;2023-03-01T07:00:31;2.30;99.90
2010;DHT22;1008;47.404;8.502;2023-03-01T07:02:59;2.30;99.90
2010;DHT22;1008;47.404;8.502;2023-03-01T07:05:27;2.30;99.90
2010;DHT22;1008;47.404;8.502;2023-03-01T07:07:54;2.30;99.90
2010;DHT22;1008;47.404;8.502;2023-03-01T07:10:21;2.20;99.90
2010;DHT22;1008;47.404;8.502;2023-03-01T07:12:48;2.60;99.90
2010;DHT22;1008;47.404;8.502;2023-03-01T07:15:15;2.40;99.90
2010;DHT22;1008;47.404;8.502;2023-03-01T07:17:43;2.30;99.90
2010;DHT22;1008;47.404;8.502;2023-03-01T07:20:13;2.30;99.90
2010;DHT22;1008;47.404;8.502;2023-03-01T07:22:40;2.30;99.90
2010;DHT22;1008;47.404;8.502;2023-03-01T07:25:08;2.30;99.90
2010;DHT22;1008;47.404;8.502;2023-03-01T07:27:35;2.20;99.90
2010;DHT22;1008;47.404;8.502;2023-03-01T07:30:03;2.30;99.90
2010;DHT22;1008;47.404;8.502;2023-03-01T07:32:30;2.30;99.90
2010;DHT22;1008;47.404;8.502;2023-03-01T07:34:58;2.30;99.90
2010;DHT22;1008;47.404;8.502;2023-03-01T07:37:25;2.20;99.90
2010;DHT22;1008;47.404;8.502;2023-03-01T07:39:52;2.10;99.90
2010;DHT22;1008;47.404;8.502;2023-03-01T07:42:18;2.30;99.90
2010;DHT22;1008;47.404;8.502;2023-03-01T07:44:45;2.40;99.90
2010;DHT22;1008;47.404;8.502;2023-03-01T07:47:12;2.40;99.90
2010;DHT22;1008;47.404;8.502;2023-03-01T07:49:38;2.30;99.90
2010;DHT22;1008;47.404;8.502;2023-03-01T07:52:06;2.20;99.90
2010;DHT22;1008;47.404;8.502;2023-03-01T07:54:35;2.20;99.90
2010;DHT22;1008;47.404;8.502;2023-03-01T07:57:02;2.30;99.90
2010;DHT22;1008;47.404;8.502;2023-03-01T07:59:29;2.20;99.90
2010;DHT22;1008;47.404;8.502;2023-03-01T08:01:56;2.30;99.90
2010;DHT22;1008;47.404;8.502;2023-03-01T08:04:23;2.40;99.90
2010;DHT22;1008;47.404;8.502;2023-03-01T08:06:50;2.40;99.90
2010;DHT22;1008;47.404;8.502;2023-03-01T08:09:18;2.40;99.90
2010;DHT22;1008;47.404;8.502;2023-03-01T08:11:45;2.20;99.90
2010;DHT22;1008;47.404;8.502;2023-03-01T08:14:11;2.40;99.90
2010;DHT22;1008;47.404;8.502;2023-03-01T08:16:38;2.30;99.90
2010;DHT22;1008;47.404;8.502;2023-03-01T08:19:05;2.30;99.90
2010;DHT22;1008;47.404;8.502;2023-03-01T08:21:33;2.40;99.90
2010;DHT22;1008;47.404;8.502;2023-03-01T08:24:00;2.30;99.90
2010;DHT22;1008;47.404;8.502;2023-03-01T08:26:29;2.40;99.90
2010;DHT22;1008;47.404;8.502;2023-03-01T08:28:56;2.40;99.90
2010;DHT22;1008;47.404;8.502;2023-03-01T08:31:24;2.60;99.90
2010;DHT22;1008;47.404;8.502;2023-03-01T08:33:55;2.60;99.90
2010;DHT22;1008;47.404;8.502;2023-03-01T08:36:23;2.60;99.90
2010;DHT22;1008;47.404;8.502;2023-03-01T08:38:50;2.50;99.90
2010;DHT22;1008;47.404;8.502;2023-03-01T08:41:17;2.50;99.90
2010;DHT22;1008;47.404;8.502;2023-03-01T08:43:46;2.50;99.90
2010;DHT22;1008;47.404;8.502;2023-03-01T08:46:13;2.70;99.90
2010;DHT22;1008;47.404;8.502;2023-03-01T08:48:40;2.60;99.90
2010;DHT22;1008;47.404;8.502;2023-03-01T08:51:09;2.60;99.90
2010;DHT22;1008;47.404;8.502;2023-03-01T08:53:36;2.60;99.90
2010;DHT22;1008;47.404;8.502;2023-03-01T08:56:03;2.60;99.90
2010;DHT22;1008;47.404;8.502;2023-03-01T08:58:30;2.60;99.90
2010;DHT22;1008;47.404;8.502;2023-03-01T09:00:58;2.50;99.90
2010;DHT22;1008;47.404;8.502;2023-03-01T09:03:25;2.50;99.90
2010;DHT22;1008;47.404;8.502;2023-03-01T09:05:52;2.50;99.90
2010;DHT22;1008;47.404;8.502;2023-03-01T09:08:20;2.70;99.90
2010;DHT22;1008;47.404;8.502;2023-03-01T09:10:46;2.40;99.90
2010;DHT22;1008;47.404;8.502;2023-03-01T09:13:13;2.50;99.90
2010;DHT22;1008;47.404;8.502;2023-03-01T09:15:40;2.50;99.90
2010;DHT22;1008;47.404;8.502;2023-03-01T09:18:08;2.50;99.90
2010;DHT22;1008;47.404;8.502;2023-03-01T09:20:35;2.50;99.90
2010;DHT22;1008;47.404;8.502;2023-03-01T09:23:02;2.40;99.90
2010;DHT22;1008;47.404;8.502;2023-03-01T09:25:28;2.50;99.90
2010;DHT22;1008;47.404;8.502;2023-03-01T09:27:55;2.40;99.90
2010;DHT22;1008;47.404;8.502;2023-03-01T09:30:22;2.40;99.90
2010;DHT22;1008;47.404;8.502;2023-03-01T09:32:49;2.40;99.90
2010;DHT22;1008;47.404;8.502;2023-03-01T09:35:17;2.50;99.90
2010;DHT22;1008;47.404;8.502;2023-03-01T09:37:45;2.50;99.90
2010;DHT22;1008;47.404;8.502;2023-03-01T09:40:15;2.50;99.90
2010;DHT22;1008;47.404;8.502;2023-03-01T09:42:52;2.60;99.90
2010;DHT22;1008;47.404;8.502;2023-03-01T09:45:27;2.70;99.90
2010;DHT22;1008;47.404;8.502;2023-03-01T09:47:54;2.50;99.90
2010;DHT22;1008;47.404;8.502;2023-03-01T09:50:26;2.50;99.90
2010;DHT22;1008;47.404;8.502;2023-03-01T09:53:01;2.70;99.90
2010;DHT22;1008;47.404;8.502;2023-03-01T09:55:31;2.70;99.90
2010;DHT22;1008;47.404;8.502;2023-03-01T09:58:04;2.80;99.90
2010;DHT22;1008;47.404;8.502;2023-03-01T10:00:38;2.80;99.90
2010;DHT22;1008;47.404;8.502;2023-03-01T10:03:14;2.80;99.90
2010;DHT22;1008;47.404;8.502;2023-03-01T10:05:52;2.80;99.90
2010;DHT22;1008;47.404;8.502;2023-03-01T10:08:36;2.70;99.90
2010;DHT22;1008;47.404;8.502;2023-03-01T10:11:19;2.60;99.90
2010;DHT22;1008;47.404;8.502;2023-03-01T10:13:50;2.70;99.90
2010;DHT22;1008;47.404;8.502;2023-03-01T10:16:22;2.70;99.90
2010;DHT22;1008;47.404;8.502;2023-03-01T10:18:54;2.70;99.90
2010;DHT22;1008;47.404;8.502;2023-03-01T10:21:23;2.80;99.90
2010;DHT22;1008;47.404;8.502;2023-03-01T10:23:50;2.80;99.90
2010;DHT22;1008;47.404;8.502;2023-03-01T10:26:32;2.60;99.90
2010;DHT22;1008;47.404;8.502;2023-03-01T10:29:06;2.80;99.90
2010;DHT22;1008;47.404;8.502;2023-03-01T10:31:39;2.90;99.90
2010;DHT22;1008;47.404;8.502;2023-03-01T10:34:11;3.00;99.90
2010;DHT22;1008;47.404;8.502;2023-03-01T10:36:40;3.00;99.90
2010;DHT22;1008;47.404;8.502;2023-03-01T10:39:14;3.00;99.90
2010;DHT22;1008;47.404;8.502;2023-03-01T10:41:59;3.00;99.90
2010;DHT22;1008;47.404;8.502;2023-03-01T10:44:41;3.20;99.90
2010;DHT22;1008;47.404;8.502;2023-03-01T10:47:21;3.10;99.90
2010;DHT22;1008;47.404;8.502;2023-03-01T10:50:09;3.10;99.90
2010;DHT22;1008;47.404;8.502;2023-03-01T10:52:57;2.90;99.90
2010;DHT22;1008;47.404;8.502;2023-03-01T10:55:27;3.00;99.90
2010;DHT22;1008;47.404;8.502;2023-03-01T10:58:07;3.10;99.90
2010;DHT22;1008;47.404;8.502;2023-03-01T11:00:46;3.10;99.90
2010;DHT22;1008;47.404;8.502;2023-03-01T11:03:14;3.10;99.90
2010;DHT22;1008;47.404;8.502;2023-03-01T11:06:02;3.00;99.90
2010;DHT22;1008;47.404;8.502;2023-03-01T11:08:40;3.10;99.90
2010;DHT22;1008;47.404;8.502;2023-03-01T11:11:26;3.10;99.90
2010;DHT22;1008;47.404;8.502;2023-03-01T11:14:06;3.20;99.90
2010;DHT22;1008;47.404;8.502;2023-03-01T11:16:35;3.20;99.90
2010;DHT22;1008;47.404;8.502;2023-03-01T11:19:15;3.00;99.90
2010;DHT22;1008;47.404;8.502;2023-03-01T11:21:47;3.10;99.90
2010;DHT22;1008;47.404;8.502;2023-03-01T11:24:17;3.00;99.90
2010;DHT22;1008;47.404;8.502;2023-03-01T11:26:52;3.00;99.90
2010;DHT22;1008;47.404;8.502;2023-03-01T11:29:27;3.00;99.90
2010;DHT22;1008;47.404;8.502;2023-03-01T11:31:58;3.00;99.90
2010;DHT22;1008;47.404;8.502;2023-03-01T11:34:36;2.90;99.90
2010;DHT22;1008;47.404;8.502;2023-03-01T11:37:16;3.00;99.90
2010;DHT22;1008;47.404;8.502;2023-03-01T11:39:54;3.20;99.90
2010;DHT22;1008;47.404;8.502;2023-03-01T11:42:46;3.10;99.90
2010;DHT22;1008;47.404;8.502;2023-03-01T11:45:14;3.40;99.90
2010;DHT22;1008;47.404;8.502;2023-03-01T11:47:59;3.20;99.90
2010;DHT22;1008;47.404;8.502;2023-03-01T11:50:38;3.20;99.90
2010;DHT22;1008;47.404;8.502;2023-03-01T11:53:24;3.20;99.90
2010;DHT22;1008;47.404;8.502;2023-03-01T11:56:08;3.20;99.90
2010;DHT22;1008;47.404;8.502;2023-03-01T11:59:01;3.20;99.90
2010;DHT22;1008;47.404;8.502;2023-03-01T12:01:37;3.00;99.90
2010;DHT22;1008;47.404;8.502;2023-03-01T12:04:23;2.90;99.90
2010;DHT22;1008;47.404;8.502;2023-03-01T12:06:57;2.90;99.90
2010;DHT22;1008;47.404;8.502;2023-03-01T12:09:48;3.00;99.90
2010;DHT22;1008;47.404;8.502;2023-03-01T12:12:29;3.10;99.90
2010;DHT22;1008;47.404;8.502;2023-03-01T12:15:33;3.00;99.90
2010;DHT22;1008;47.404;8.502;2023-03-01T12:18:13;3.00;99.90
2010;DHT22;1008;47.404;8.502;2023-03-01T12:20:49;3.00;99.90
2010;DHT22;1008;47.404;8.502;2023-03-01T12:26:40;3.20;99.90
2010;DHT22;1008;47.404;8.502;2023-03-01T12:29:22;3.30;99.90
2010;DHT22;1008;47.404;8.502;2023-03-01T12:32:02;3.20;99.90
2010;DHT22;1008;47.404;8.502;2023-03-01T12:37:36;3.30;99.90
2010;DHT22;1008;47.404;8.502;2023-03-01T12:40:20;3.30;99.90
2010;DHT22;1008;47.404;8.502;2023-03-01T12:42:58;3.40;99.90
2010;DHT22;1008;47.404;8.502;2023-03-01T12:45:46;3.40;99.90
2010;DHT22;1008;47.404;8.502;2023-03-01T12:48:28;3.30;99.90
2010;DHT22;1008;47.404;8.502;2023-03-01T12:51:01;3.20;99.90
2010;DHT22;1008;47.404;8.502;2023-03-01T12:53:32;3.20;99.90
2010;DHT22;1008;47.404;8.502;2023-03-01T12:56:02;3.30;99.90
2010;DHT22;1008;47.404;8.502;2023-03-01T12:58:34;3.50;99.90
2010;DHT22;1008;47.404;8.502;2023-03-01T13:01:14;3.30;99.90
2010;DHT22;1008;47.404;8.502;2023-03-01T13:03:57;3.30;99.90
2010;DHT22;1008;47.404;8.502;2023-03-01T13:06:32;3.40;99.90
2010;DHT22;1008;47.404;8.502;2023-03-01T13:09:07;3.30;99.90
2010;DHT22;1008;47.404;8.502;2023-03-01T13:11:36;3.20;99.90
2010;DHT22;1008;47.404;8.502;2023-03-01T13:17:30;3.10;99.90
2010;DHT22;1008;47.404;8.502;2023-03-01T13:19:57;3.30;99.90
2010;DHT22;1008;47.404;8.502;2023-03-01T13:22:31;3.30;99.90
2010;DHT22;1008;47.404;8.502;2023-03-01T13:25:11;3.70;99.90
2010;DHT22;1008;47.404;8.502;2023-03-01T13:27:39;3.30;99.90
2010;DHT22;1008;47.404;8.502;2023-03-01T13:33:46;3.20;99.90
2010;DHT22;1008;47.404;8.502;2023-03-01T13:36:47;3.30;99.90
2010;DHT22;1008;47.404;8.502;2023-03-01T13:39:32;3.30;99.90
2010;DHT22;1008;47.404;8.502;2023-03-01T13:42:30;3.40;99.90
2010;DHT22;1008;47.404;8.502;2023-03-01T13:44:58;3.40;99.90
2010;DHT22;1008;47.404;8.502;2023-03-01T13:47:27;3.20;99.90
2010;DHT22;1008;47.404;8.502;2023-03-01T13:49:57;3.20;99.90
2010;DHT22;1008;47.404;8.502;2023-03-01T13:52:36;3.30;99.90
2010;DHT22;1008;47.404;8.502;2023-03-01T13:55:13;3.30;99.90
2010;DHT22;1008;47.404;8.502;2023-03-01T13:57:45;3.30;99.90
2010;DHT22;1008;47.404;8.502;2023-03-01T14:00:27;3.40;99.90
2010;DHT22;1008;47.404;8.502;2023-03-01T14:03:08;3.30;99.90
2010;DHT22;1008;47.404;8.502;2023-03-01T14:05:37;3.20;99.90
2010;DHT22;1008;47.404;8.502;2023-03-01T14:08:04;3.10;99.90
2010;DHT22;1008;47.404;8.502;2023-03-01T14:10:36;3.10;99.90
2010;DHT22;1008;47.404;8.502;2023-03-01T14:13:21;3.20;99.90
2010;DHT22;1008;47.404;8.502;2023-03-01T14:16:04;3.20;99.90
2010;DHT22;1008;47.404;8.502;2023-03-01T14:18:40;3.30;99.90
2010;DHT22;1008;47.404;8.502;2023-03-01T14:21:13;3.30;99.90
2010;DHT22;1008;47.404;8.502;2023-03-01T14:23:41;3.20;99.90
2010;DHT22;1008;47.404;8.502;2023-03-01T14:26:08;3.10;99.90
2010;DHT22;1008;47.404;8.502;2023-03-01T14:28:38;3.00;99.90
2010;DHT22;1008;47.404;8.502;2023-03-01T14:31:34;3.10;99.90
2010;DHT22;1008;47.404;8.502;2023-03-01T14:34:02;3.20;99.90
2010;DHT22;1008;47.404;8.502;2023-03-01T14:36:32;2.90;99.90
2010;DHT22;1008;47.404;8.502;2023-03-01T14:38:59;3.00;99.90
2010;DHT22;1008;47.404;8.502;2023-03-01T14:41:33;3.00;99.90
2010;DHT22;1008;47.404;8.502;2023-03-01T14:44:03;3.20;99.90
2010;DHT22;1008;47.404;8.502;2023-03-01T14:46:33;3.20;99.90
2010;DHT22;1008;47.404;8.502;2023-03-01T14:49:03;3.30;99.90
2010;DHT22;1008;47.404;8.502;2023-03-01T14:51:35;3.40;99.90
2010;DHT22;1008;47.404;8.502;2023-03-01T14:54:02;3.20;99.90
2010;DHT22;1008;47.404;8.502;2023-03-01T14:56:43;3.30;99.90
2010;DHT22;1008;47.404;8.502;2023-03-01T14:59:11;3.10;99.90
2010;DHT22;1008;47.404;8.502;2023-03-01T15:01:39;3.20;99.90
2010;DHT22;1008;47.404;8.502;2023-03-01T15:04:10;3.20;99.90
2010;DHT22;1008;47.404;8.502;2023-03-01T15:06:38;3.40;99.90
2010;DHT22;1008;47.404;8.502;2023-03-01T15:09:13;3.20;99.90
2010;DHT22;1008;47.404;8.502;2023-03-01T15:11:40;3.20;99.90
2010;DHT22;1008;47.404;8.502;2023-03-01T15:14:39;3.10;99.90
2010;DHT22;1008;47.404;8.502;2023-03-01T15:17:20;3.10;99.90
2010;DHT22;1008;47.404;8.502;2023-03-01T15:19:47;3.20;99.90
2010;DHT22;1008;47.404;8.502;2023-03-01T15:22:16;3.20;99.90
2010;DHT22;1008;47.404;8.502;2023-03-01T15:24:47;3.00;99.90
2010;DHT22;1008;47.404;8.502;2023-03-01T15:27:16;3.00;99.90
2010;DHT22;1008;47.404;8.502;2023-03-01T15:29:49;3.10;99.90
2010;DHT22;1008;47.404;8.502;2023-03-01T15:32:28;3.10;99.90
2010;DHT22;1008;47.404;8.502;2023-03-01T15:34:56;3.10;99.90
2010;DHT22;1008;47.404;8.502;2023-03-01T15:37:40;3.20;99.90
2010;DHT22;1008;47.404;8.502;2023-03-01T15:40:20;3.50;99.90
2010;DHT22;1008;47.404;8.502;2023-03-01T15:42:50;3.20;99.90
2010;DHT22;1008;47.404;8.502;2023-03-01T15:45:25;3.20;99.90
2010;DHT22;1008;47.404;8.502;2023-03-01T15:47:55;3.20;99.90
2010;DHT22;1008;47.404;8.502;2023-03-01T15:50:26;3.10;99.90
2010;DHT22;1008;47.404;8.502;2023-03-01T15:52:56;3.10;99.90
2010;DHT22;1008;47.404;8.502;2023-03-01T15:55:26;3.20;99.90
2010;DHT22;1008;47.404;8.502;2023-03-01T15:57:59;3.10;99.90
2010;DHT22;1008;47.404;8.502;2023-03-01T16:00:27;3.10;99.90
2010;DHT22;1008;47.404;8.502;2023-03-01T16:02:54;3.00;99.90
2010;DHT22;1008;47.404;8.502;2023-03-01T16:05:23;3.00;99.90
2010;DHT22;1008;47.404;8.502;2023-03-01T16:07:50;3.00;99.90
2010;DHT22;1008;47.404;8.502;2023-03-01T16:10:20;2.90;99.90
2010;DHT22;1008;47.404;8.502;2023-03-01T16:12:47;3.00;99.90
2010;DHT22;1008;47.404;8.502;2023-03-01T16:15:17;3.00;99.90
2010;DHT22;1008;47.404;8.502;2023-03-01T16:17:44;3.00;99.90
2010;DHT22;1008;47.404;8.502;2023-03-01T16:20:11;3.00;99.90
2010;DHT22;1008;47.404;8.502;2023-03-01T16:22:41;3.00;99.90
2010;DHT22;1008;47.404;8.502;2023-03-01T16:25:08;3.00;99.90
2010;DHT22;1008;47.404;8.502;2023-03-01T16:27:36;2.90;99.90
2010;DHT22;1008;47.404;8.502;2023-03-01T16:30:05;3.10;99.90
2010;DHT22;1008;47.404;8.502;2023-03-01T16:32:32;3.00;99.90
2010;DHT22;1008;47.404;8.502;2023-03-01T16:34:59;3.00;99.90
2010;DHT22;1008;47.404;8.502;2023-03-01T16:37:25;3.00;99.90
2010;DHT22;1008;47.404;8.502;2023-03-01T16:39:52;3.00;99.90
2010;DHT22;1008;47.404;8.502;2023-03-01T16:42:19;3.10;99.90
2010;DHT22;1008;47.404;8.502;2023-03-01T16:44:47;3.00;99.90
2010;DHT22;1008;47.404;8.502;2023-03-01T16:47:14;3.00;99.90
2010;DHT22;1008;47.404;8.502;2023-03-01T16:49:41;3.00;99.90
2010;DHT22;1008;47.404;8.502;2023-03-01T16:52:08;3.20;99.90
2010;DHT22;1008;47.404;8.502;2023-03-01T16:54:34;3.00;99.90